Time;durP1;ratioP1;P1;durP2;ratioP2;P2;SDS_P1;SDS_P2;PMS_P1;PMS_P2;Temp;Humidity;BMP_temperature;BMP_pressure;BME280_temperature;BME280_humidity;BME280_pressure;Samples;Min_cycle;Max_cycle;Signal;HPM_P1;HPM_P2
2023/05/11 00:02:12;;;;;;;0.53;0.53;;;15.00;83.10;15.00;96218.00;;;;5032327;28;20252;-83
2023/05/11 00:04:39;;;;;;;0.53;0.53;;;14.90;83.10;15.00;96218.00;;;;5056072;28;20649;-83
2023/05/11 00:07:07;;;;;;;0.50;0.50;;;14.90;83.10;14.90;96210.00;;;;5053772;28;20201;-82
2023/05/11 00:09:37;;;;;;;0.80;0.60;;;14.90;83.10;14.90;96210.00;;;;5053254;28;20201;-82
2023/05/11 00:12:04;;;;;;;0.60;0.60;;;14.90;83.20;14.90;96210.00;;;;5047188;28;20240;-83
2023/05/11 00:14:32;;;;;;;0.60;0.60;;;14.90;83.20;14.90;96209.00;;;;5050672;28;20224;-83
2023/05/11 00:16:59;;;;;;;0.87;0.53;;;14.90;83.10;14.90;96206.00;;;;5056734;28;20287;-83
2023/05/11 00:19:27;;;;;;;0.60;0.40;;;14.90;83.20;14.90;96195.00;;;;5010946;28;20252;-83
2023/05/11 00:21:54;;;;;;;0.80;0.63;;;14.90;83.10;14.90;96199.00;;;;5047541;28;20217;-82
2023/05/11 00:24:21;;;;;;;0.80;0.80;;;14.90;83.10;14.90;96199.00;;;;5056561;28;20221;-83
2023/05/11 00:26:50;;;;;;;0.50;0.50;;;14.80;82.90;14.90;96195.00;;;;5051683;28;20253;-83
2023/05/11 00:29:18;;;;;;;0.80;0.60;;;14.80;83.00;14.90;96198.00;;;;5057022;28;20221;-82
2023/05/11 00:31:46;;;;;;;0.43;0.43;;;14.80;83.10;14.90;96194.00;;;;5063301;28;20243;-83
2023/05/11 00:34:14;;;;;;;0.53;0.50;;;14.80;84.00;14.90;96185.00;;;;5031713;28;20219;-83
2023/05/11 00:36:41;;;;;;;0.60;0.60;;;14.80;83.30;14.90;96190.00;;;;5056906;28;20280;-83
2023/05/11 00:39:10;;;;;;;1.03;0.60;;;14.80;83.20;14.90;96182.00;;;;5031416;28;20189;-83
2023/05/11 00:41:38;;;;;;;0.50;0.50;;;14.80;83.20;14.90;96183.00;;;;5053035;28;20213;-83
2023/05/11 00:44:07;;;;;;;0.40;0.40;;;14.80;83.30;14.90;96187.00;;;;5067144;28;20209;-82
2023/05/11 00:46:37;;;;;;;0.67;0.67;;;14.80;83.30;14.90;96182.00;;;;5039297;28;20304;-83
2023/05/11 00:49:05;;;;;;;1.77;0.50;;;14.80;83.20;14.90;96183.00;;;;5059269;28;20572;-82
2023/05/11 00:51:33;;;;;;;0.70;0.60;;;14.80;83.80;14.90;96182.00;;;;5015106;28;20209;-81
2023/05/11 00:54:02;;;;;;;0.53;0.53;;;14.80;83.10;14.80;96186.00;;;;5053976;28;20315;-83
2023/05/11 00:56:29;;;;;;;0.43;0.43;;;14.80;83.20;14.80;96184.00;;;;5042518;28;20216;-83
2023/05/11 00:58:57;;;;;;;0.47;0.47;;;14.80;83.20;14.80;96181.00;;;;4989582;28;20286;-82
2023/05/11 01:01:26;;;;;;;1.23;0.70;;;14.70;83.20;14.80;96178.00;;;;5053955;28;20289;-83
2023/05/11 01:03:54;;;;;;;0.57;0.57;;;14.80;83.30;14.80;96179.00;;;;5050725;28;20252;-83
2023/05/11 01:06:46;;;;;;;0.47;0.47;;;14.80;83.20;14.80;96172.00;;;;5022187;28;20252;-83
2023/05/11 01:09:32;;;;;;;0.60;0.60;;;14.70;83.00;14.80;96178.00;;;;5034753;28;20197;-82
2023/05/11 01:12:10;;;;;;;1.03;0.50;;;14.70;82.90;14.80;96169.00;;;;5029110;28;20283;-85
2023/05/11 01:14:49;;;;;;;0.50;0.50;;;14.70;82.90;14.70;96177.00;;;;5054137;28;20255;-83
2023/05/11 01:17:26;;;;;;;0.50;0.50;;;14.70;82.90;14.70;96173.00;;;;5054721;28;20205;-84
2023/05/11 01:20:02;;;;;;;0.43;0.40;;;14.70;82.90;14.70;96172.00;;;;5054904;28;20287;-83
2023/05/11 01:22:44;;;;;;;1.47;0.77;;;14.70;82.90;14.70;96173.00;;;;5016196;28;20613;-83
2023/05/11 01:25:33;;;;;;;0.93;0.50;;;14.70;83.00;14.70;96167.00;;;;5020200;28;20224;-83
2023/05/11 01:28:29;;;;;;;0.50;0.50;;;14.70;83.20;14.70;96161.00;;;;5038405;28;20288;-83
2023/05/11 01:31:07;;;;;;;1.03;0.47;;;14.70;83.40;14.70;96163.00;;;;5023725;28;20284;-83
2023/05/11 01:33:39;;;;;;;0.40;0.40;;;14.70;83.40;14.70;96166.00;;;;5035692;28;20228;-83
2023/05/11 01:36:11;;;;;;;1.73;0.40;;;14.60;83.30;14.70;96169.00;;;;5030731;28;20202;-83
2023/05/11 01:38:42;;;;;;;0.73;0.73;;;14.60;83.30;14.70;96167.00;;;;5034913;28;20193;-82
2023/05/11 01:41:15;;;;;;;0.40;0.40;;;14.70;84.00;14.70;96168.00;;;;4992433;28;20288;-83
2023/05/11 01:43:49;;;;;;;0.40;0.40;;;14.60;83.30;14.70;96167.00;;;;5035083;28;20288;-83
2023/05/11 01:46:21;;;;;;;0.60;0.60;;;14.70;83.50;14.70;96160.00;;;;5043748;28;20192;-83
2023/05/11 01:48:52;;;;;;;0.50;0.50;;;14.70;83.70;14.70;96161.00;;;;5039067;28;20227;-82
2023/05/11 01:51:20;;;;;;;0.60;0.43;;;14.70;83.60;14.70;96170.00;;;;5043837;28;20291;-83
2023/05/11 01:53:49;;;;;;;0.57;0.50;;;14.70;83.50;14.80;96173.00;;;;5009807;28;20658;-83
2023/05/11 01:56:21;;;;;;;0.50;0.50;;;14.70;83.50;14.70;96163.00;;;;5048778;28;20196;-82
2023/05/11 01:58:51;;;;;;;0.60;0.60;;;14.70;83.50;14.70;96169.00;;;;5007889;28;20228;-83
2023/05/11 02:01:21;;;;;;;0.73;0.50;;;14.70;83.50;14.70;96164.00;;;;5038741;28;20308;-84
2023/05/11 02:03:50;;;;;;;0.60;0.60;;;14.70;83.50;14.70;96165.00;;;;5016836;28;20220;-83
2023/05/11 02:06:20;;;;;;;0.53;0.50;;;14.60;83.40;14.70;96167.00;;;;5031721;28;20280;-85
2023/05/11 02:08:49;;;;;;;0.47;0.47;;;14.60;83.50;14.70;96169.00;;;;5010794;28;20685;-84
2023/05/11 02:11:19;;;;;;;0.90;0.70;;;14.70;83.50;14.70;96164.00;;;;5042246;28;20572;-83
2023/05/11 02:13:49;;;;;;;0.67;0.67;;;14.70;83.60;14.70;96175.00;;;;4984309;28;20205;-83
2023/05/11 02:16:20;;;;;;;0.50;0.50;;;14.60;83.60;14.70;96167.00;;;;5015144;28;20197;-83
2023/05/11 02:18:49;;;;;;;0.50;0.50;;;14.60;83.50;14.70;96165.00;;;;5045197;28;20214;-83
2023/05/11 02:21:18;;;;;;;0.50;0.40;;;14.60;83.60;14.70;96159.00;;;;5025769;28;20221;-84
2023/05/11 02:23:48;;;;;;;0.70;0.70;;;14.60;83.80;14.70;96155.00;;;;5001871;28;20198;-83
2023/05/11 02:26:17;;;;;;;1.30;0.80;;;14.60;83.90;14.70;96155.00;;;;5025458;28;20635;-83
2023/05/11 02:28:44;;;;;;;0.50;0.50;;;14.60;84.60;14.70;96160.00;;;;5037193;28;20709;-83
2023/05/11 02:31:19;;;;;;;0.50;0.50;;;14.60;83.80;14.70;96159.00;;;;5035619;28;20251;-82
2023/05/11 02:33:51;;;;;;;0.70;0.60;;;14.60;84.00;14.70;96153.00;;;;5039920;28;20279;-82
2023/05/11 02:36:22;;;;;;;0.60;0.60;;;14.60;83.90;14.70;96160.00;;;;5025592;28;20581;-83
2023/05/11 02:38:55;;;;;;;0.70;0.70;;;14.60;83.80;14.70;96154.00;;;;5031757;28;20281;-81
2023/05/11 02:41:29;;;;;;;0.60;0.60;;;14.60;83.90;14.70;96148.00;;;;5026732;28;20634;-83
2023/05/11 02:44:02;;;;;;;0.80;0.80;;;14.60;84.10;14.70;96150.00;;;;5044101;28;20248;-82
2023/05/11 02:46:36;;;;;;;0.60;0.60;;;14.60;84.10;14.70;96145.00;;;;5021011;28;20569;-82
2023/05/11 02:49:09;;;;;;;0.80;0.80;;;14.60;84.10;14.70;96147.00;;;;5032625;28;20291;-83
2023/05/11 02:51:39;;;;;;;0.97;0.70;;;14.60;84.20;14.70;96141.00;;;;5012562;28;20211;-82
2023/05/11 02:54:09;;;;;;;0.73;0.73;;;14.60;84.20;14.70;96131.00;;;;5026746;28;20674;-83
2023/05/11 02:56:38;;;;;;;0.50;0.50;;;14.60;84.30;14.70;96136.00;;;;5053336;28;20617;-84
2023/05/11 02:59:07;;;;;;;1.90;0.70;;;14.60;84.40;14.70;96143.00;;;;5044171;28;20260;-83
2023/05/11 03:01:35;;;;;;;0.50;0.50;;;14.60;84.50;14.70;96144.00;;;;5018974;28;20221;-83
2023/05/11 03:04:07;;;;;;;0.50;0.50;;;14.60;84.40;14.70;96146.00;;;;5020193;28;20210;-82
2023/05/11 03:06:35;;;;;;;0.60;0.60;;;14.60;84.40;14.70;96142.00;;;;5052057;28;20232;-82
2023/05/11 03:09:03;;;;;;;0.50;0.50;;;14.60;84.50;14.70;96144.00;;;;5063320;28;20671;-82
2023/05/11 03:11:31;;;;;;;0.53;0.47;;;14.60;84.50;14.70;96134.00;;;;5062039;28;20228;-83
2023/05/11 03:13:59;;;;;;;0.93;0.80;;;14.60;84.40;14.70;96134.00;;;;5055632;28;20294;-83
2023/05/11 03:16:28;;;;;;;1.30;0.60;;;14.70;84.60;14.70;96138.00;;;;5046568;28;20200;-82
2023/05/11 03:18:56;;;;;;;1.00;0.80;;;14.60;84.70;14.80;96134.00;;;;5036241;28;20216;-83
2023/05/11 03:21:27;;;;;;;1.03;0.77;;;14.60;84.70;14.80;96145.00;;;;5063576;28;20252;-83
2023/05/11 03:23:55;;;;;;;0.73;0.67;;;14.70;84.60;14.80;96133.00;;;;5042814;28;20301;-83
2023/05/11 03:26:30;;;;;;;1.27;0.60;;;14.70;84.60;14.80;96141.00;;;;5021841;28;20198;-82
2023/05/11 03:29:00;;;;;;;0.70;0.70;;;14.70;84.50;14.80;96139.00;;;;5018060;28;20572;-83
2023/05/11 03:31:27;;;;;;;0.60;0.60;;;14.70;84.50;14.70;96134.00;;;;5018945;28;20206;-83
2023/05/11 03:33:54;;;;;;;1.17;0.60;;;14.70;84.60;14.80;96135.00;;;;5018816;28;20213;-82
2023/05/11 03:36:25;;;;;;;0.50;0.50;;;14.70;84.60;14.80;96137.00;;;;5018069;28;20197;-82
2023/05/11 03:38:56;;;;;;;0.60;0.60;;;14.70;84.50;14.70;96142.00;;;;5023112;28;20226;-83
2023/05/11 03:41:26;;;;;;;0.70;0.50;;;14.70;84.30;14.70;96134.00;;;;5019707;28;20214;-83
2023/05/11 03:44:00;;;;;;;2.50;0.57;;;14.70;84.20;14.70;96139.00;;;;5042769;28;20221;-83
2023/05/11 03:46:29;;;;;;;0.47;0.43;;;14.70;84.10;14.70;96139.00;;;;5039480;28;20280;-83
2023/05/11 03:48:57;;;;;;;0.60;0.60;;;14.70;84.10;14.70;96140.00;;;;5030814;28;20243;-84
2023/05/11 03:51:26;;;;;;;0.60;0.60;;;14.70;84.20;14.70;96128.00;;;;5036497;28;20289;-84
2023/05/11 03:53:54;;;;;;;1.00;0.40;;;14.60;84.10;14.70;96131.00;;;;5046891;28;20299;-83
2023/05/11 03:56:22;;;;;;;0.70;0.40;;;14.60;84.00;14.60;96121.00;;;;5032144;28;20586;-83
2023/05/11 03:58:49;;;;;;;0.50;0.50;;;14.60;83.90;14.60;96126.00;;;;5034698;28;20277;-84
2023/05/11 04:01:21;;;;;;;0.93;0.40;;;14.60;84.00;14.60;96124.00;;;;5047131;28;20300;-83
2023/05/11 04:03:49;;;;;;;0.33;0.33;;;14.60;84.10;14.70;96128.00;;;;5025685;28;20198;-83
2023/05/11 04:06:17;;;;;;;0.37;0.37;;;14.60;84.20;14.70;96123.00;;;;5039572;28;20227;-81
2023/05/11 04:08:47;;;;;;;0.40;0.40;;;14.60;84.20;14.70;96120.00;;;;5046338;28;20213;-82
2023/05/11 04:11:14;;;;;;;1.90;0.80;;;14.60;85.00;14.70;96120.00;;;;5040382;28;20288;-83
2023/05/11 04:13:41;;;;;;;0.30;0.30;;;14.60;84.30;14.70;96117.00;;;;5047701;28;21023;-82
2023/05/11 04:16:09;;;;;;;0.60;0.50;;;14.60;84.10;14.70;96118.00;;;;5022290;28;20197;-83
2023/05/11 04:18:36;;;;;;;0.40;0.40;;;14.60;84.10;14.70;96116.00;;;;5030190;28;20215;-82
2023/05/11 04:21:05;;;;;;;0.60;0.60;;;14.60;83.90;14.60;96112.00;;;;5028646;28;20225;-83
2023/05/11 04:23:33;;;;;;;0.40;0.40;;;14.60;83.80;14.60;96112.00;;;;5033531;28;20217;-84
2023/05/11 04:26:02;;;;;;;0.80;0.40;;;14.60;83.90;14.60;96116.00;;;;5029403;28;20750;-85
2023/05/11 04:28:31;;;;;;;1.10;0.30;;;14.60;84.00;14.70;96117.00;;;;5027147;28;20332;-85
2023/05/11 04:31:22;;;;;;;0.87;0.40;;;14.60;84.00;14.70;96110.00;;;;5017696;28;20280;-85
2023/05/11 04:33:53;;;;;;;0.67;0.40;;;14.60;83.80;14.70;96117.00;;;;5038274;28;20315;-85
2023/05/11 04:36:21;;;;;;;0.40;0.40;;;14.50;83.80;14.80;96119.00;;;;5035413;28;20201;-85
2023/05/11 04:38:48;;;;;;;0.50;0.50;;;14.60;84.10;14.80;96117.00;;;;5043269;28;20198;-85
2023/05/11 04:41:17;;;;;;;0.70;0.40;;;14.60;84.20;14.80;96127.00;;;;5035396;28;20274;-85
2023/05/11 04:43:45;;;;;;;0.40;0.40;;;14.60;84.20;14.90;96117.00;;;;5037608;28;20280;-85
2023/05/11 04:46:12;;;;;;;0.50;0.50;;;14.70;84.30;14.90;96123.00;;;;4997228;28;20198;-84
2023/05/11 04:48:39;;;;;;;0.40;0.40;;;14.70;84.30;14.90;96120.00;;;;5026405;28;20207;-84
2023/05/11 04:51:08;;;;;;;0.40;0.40;;;14.70;84.20;15.00;96120.00;;;;5014550;28;20197;-86
2023/05/11 04:53:35;;;;;;;0.40;0.40;;;14.70;84.10;15.00;96127.00;;;;5043497;28;20227;-85
2023/05/11 04:56:03;;;;;;;1.67;0.50;;;14.70;84.00;15.00;96126.00;;;;5035904;28;20201;-85
2023/05/11 04:58:32;;;;;;;0.67;0.50;;;14.80;84.10;15.00;96124.00;;;;5016672;28;20212;-86
2023/05/11 05:00:59;;;;;;;0.83;0.60;;;14.80;84.00;15.00;96126.00;;;;5016495;28;20300;-86
2023/05/11 05:03:27;;;;;;;0.40;0.40;;;14.80;84.10;15.00;96130.00;;;;5034591;28;20236;-86
2023/05/11 05:05:54;;;;;;;0.50;0.50;;;14.80;84.00;15.00;96123.00;;;;5005428;28;20573;-86
2023/05/11 05:08:22;;;;;;;0.50;0.50;;;14.80;84.20;15.00;96124.00;;;;5020447;28;20287;-85
2023/05/11 05:10:49;;;;;;;0.40;0.40;;;14.80;84.10;14.90;96128.00;;;;5019844;28;20281;-87
2023/05/11 05:13:17;;;;;;;0.67;0.43;;;14.80;84.10;15.00;96134.00;;;;5000940;28;20193;-85
2023/05/11 05:15:46;;;;;;;0.40;0.40;;;14.80;84.30;15.00;96128.00;;;;4997105;28;20313;-85
2023/05/11 05:18:13;;;;;;;0.40;0.40;;;14.80;84.40;15.00;96135.00;;;;5042334;28;20735;-85
2023/05/11 05:20:40;;;;;;;0.50;0.50;;;14.90;84.40;15.10;96135.00;;;;5037256;28;20198;-86
2023/05/11 05:23:08;;;;;;;0.50;0.50;;;14.90;84.30;15.10;96132.00;;;;5022981;28;20231;-85
2023/05/11 05:25:35;;;;;;;0.40;0.40;;;14.90;84.40;15.10;96136.00;;;;5051304;28;20247;-84
2023/05/11 05:28:02;;;;;;;0.40;0.40;;;14.90;84.50;15.10;96135.00;;;;5034354;28;20197;-83
2023/05/11 05:30:29;;;;;;;0.40;0.40;;;14.90;84.20;15.10;96133.00;;;;5025692;28;20232;-82
2023/05/11 05:32:58;;;;;;;0.40;0.40;;;14.90;84.10;15.10;96141.00;;;;5026166;28;20236;-84
2023/05/11 05:35:25;;;;;;;0.60;0.60;;;15.00;84.30;15.20;96137.00;;;;5043786;28;20704;-83
2023/05/11 05:37:52;;;;;;;0.43;0.40;;;15.00;84.20;15.20;96144.00;;;;5016593;28;20213;-84
2023/05/11 05:40:20;;;;;;;0.40;0.40;;;15.00;84.20;15.20;96145.00;;;;5035971;28;20235;-83
2023/05/11 05:42:48;;;;;;;0.57;0.57;;;15.00;84.30;15.20;96148.00;;;;5045891;28;20217;-85
2023/05/11 05:45:15;;;;;;;0.60;0.60;;;15.00;84.40;15.20;96148.00;;;;5038657;28;20240;-85
2023/05/11 05:47:42;;;;;;;0.30;0.30;;;15.00;84.40;15.30;96152.00;;;;5021361;28;20651;-85
2023/05/11 05:50:11;;;;;;;1.13;0.50;;;15.10;84.40;15.30;96142.00;;;;5034927;28;20296;-84
2023/05/11 05:52:39;;;;;;;0.40;0.40;;;15.10;84.40;15.30;96142.00;;;;5050720;28;20384;-85
2023/05/11 05:55:07;;;;;;;0.40;0.40;;;15.10;84.30;15.30;96148.00;;;;5033622;28;20300;-83
2023/05/11 05:57:34;;;;;;;0.50;0.50;;;15.10;84.20;15.30;96146.00;;;;5028088;28;20229;-84
2023/05/11 06:00:01;;;;;;;0.60;0.40;;;15.10;84.10;15.30;96149.00;;;;5020804;28;20629;-85
2023/05/11 06:02:29;;;;;;;0.30;0.30;;;15.10;84.20;15.30;96148.00;;;;5039384;28;20304;-84
2023/05/11 06:04:57;;;;;;;0.57;0.57;;;15.10;84.10;15.40;96146.00;;;;5032646;28;20225;-86
2023/05/11 06:07:26;;;;;;;0.33;0.30;;;15.10;84.10;15.40;96143.00;;;;5040362;28;20202;-85
2023/05/11 06:09:53;;;;;;;0.43;0.43;;;15.20;84.20;15.40;96139.00;;;;5033124;28;20197;-85
2023/05/11 06:12:20;;;;;;;0.77;0.60;;;15.20;84.10;15.40;96149.00;;;;5028433;28;20203;-83
2023/05/11 06:14:47;;;;;;;1.10;0.90;;;15.20;83.80;15.40;96151.00;;;;5031997;28;20209;-85
2023/05/11 06:17:15;;;;;;;1.17;0.80;;;15.20;83.90;15.40;96154.00;;;;5031918;28;20197;-85
2023/05/11 06:19:42;;;;;;;0.70;0.50;;;15.20;84.10;15.50;96156.00;;;;5032356;28;20263;-85
2023/05/11 06:22:09;;;;;;;0.50;0.50;;;15.20;84.10;15.50;96160.00;;;;5011230;28;20218;-84
2023/05/11 06:24:38;;;;;;;0.73;0.53;;;15.20;84.20;15.50;96157.00;;;;5043291;28;20312;-85
2023/05/11 06:27:05;;;;;;;0.60;0.60;;;15.30;84.40;15.50;96153.00;;;;5033063;28;20198;-85
2023/05/11 06:29:32;;;;;;;0.50;0.50;;;15.30;84.40;15.60;96153.00;;;;5043158;28;20231;-85
2023/05/11 06:32:00;;;;;;;0.53;0.50;;;15.30;84.30;15.50;96162.00;;;;5029354;28;20211;-85
2023/05/11 06:34:28;;;;;;;0.40;0.40;;;15.30;84.00;15.60;96147.00;;;;5015177;28;20217;-85
2023/05/11 06:36:59;;;;;;;0.60;0.60;;;15.30;84.10;15.60;96159.00;;;;5028474;28;20193;-85
2023/05/11 06:39:26;;;;;;;0.50;0.50;;;15.30;84.20;15.60;96160.00;;;;5034477;28;20284;-83
2023/05/11 06:41:55;;;;;;;0.50;0.50;;;15.30;84.10;15.50;96153.00;;;;5040378;28;20312;-84
2023/05/11 06:44:22;;;;;;;0.40;0.40;;;15.30;84.00;15.50;96156.00;;;;5030018;28;20712;-85
2023/05/11 06:46:49;;;;;;;0.97;0.77;;;15.30;83.90;15.50;96153.00;;;;5008183;28;20212;-85
2023/05/11 06:49:17;;;;;;;0.60;0.60;;;15.30;83.80;15.50;96158.00;;;;5032448;28;20208;-85
2023/05/11 06:51:44;;;;;;;0.40;0.40;;;15.40;83.90;15.50;96155.00;;;;5032719;28;20201;-85
2023/05/11 06:54:12;;;;;;;0.40;0.40;;;15.30;84.60;15.50;96150.00;;;;5041706;28;20220;-85
2023/05/11 06:56:39;;;;;;;0.50;0.50;;;15.40;84.00;15.50;96156.00;;;;5039008;28;20203;-85
2023/05/11 06:59:08;;;;;;;0.53;0.53;;;15.40;84.10;15.50;96146.00;;;;5005844;28;20580;-85
2023/05/11 07:01:35;;;;;;;1.93;0.80;;;15.40;84.10;15.60;96159.00;;;;5031821;28;20256;-85
2023/05/11 07:04:02;;;;;;;0.77;0.77;;;15.40;84.10;15.60;96160.00;;;;5037277;28;20521;-84
2023/05/11 07:06:30;;;;;;;0.70;0.60;;;15.40;84.20;15.60;96158.00;;;;5016116;28;20260;-85
2023/05/11 07:08:58;;;;;;;0.40;0.40;;;15.40;84.40;15.60;96155.00;;;;5026026;28;20284;-85
2023/05/11 07:11:26;;;;;;;0.50;0.50;;;15.40;84.20;15.60;96157.00;;;;5046020;28;20243;-85
2023/05/11 07:13:53;;;;;;;0.40;0.40;;;15.40;84.00;15.60;96164.00;;;;5035407;28;20217;-84
2023/05/11 07:16:23;;;;;;;0.60;0.50;;;15.40;83.70;15.60;96156.00;;;;5015254;28;20197;-85
2023/05/11 07:18:50;;;;;;;0.70;0.50;;;15.40;83.50;15.50;96163.00;;;;5043173;28;20571;-85
2023/05/11 07:21:17;;;;;;;0.57;0.37;;;15.40;83.70;15.60;96159.00;;;;5040433;28;20189;-85
2023/05/11 07:23:45;;;;;;;0.30;0.30;;;15.40;83.90;15.60;96161.00;;;;5029080;28;20686;-84
2023/05/11 07:26:12;;;;;;;0.50;0.40;;;15.40;84.10;15.60;96166.00;;;;5017817;28;20197;-85
2023/05/11 07:28:40;;;;;;;0.40;0.40;;;15.40;84.00;15.60;96160.00;;;;5036052;28;20563;-84
2023/05/11 07:31:07;;;;;;;0.53;0.50;;;15.40;83.80;15.60;96163.00;;;;5042834;28;20721;-84
2023/05/11 07:33:46;;;;;;;0.20;0.20;;;15.40;83.60;15.50;96166.00;;;;5032325;28;20670;-83
2023/05/11 07:36:14;;;;;;;0.20;0.20;;;15.40;83.70;15.50;96166.00;;;;5048238;28;20665;-84
2023/05/11 07:38:41;;;;;;;0.20;0.20;;;15.40;83.60;15.50;96164.00;;;;5025231;28;20560;-85
2023/05/11 07:41:10;;;;;;;0.30;0.30;;;15.30;83.60;15.50;96156.00;;;;5042928;28;20193;-84
2023/05/11 07:43:40;;;;;;;0.30;0.30;;;15.30;83.60;15.50;96159.00;;;;5033060;28;20260;-84
2023/05/11 07:46:08;;;;;;;0.20;0.20;;;15.30;83.60;15.40;96160.00;;;;5034108;28;20725;-84
2023/05/11 07:48:36;;;;;;;0.57;0.57;;;15.30;83.80;15.40;96157.00;;;;5041597;28;20633;-84
2023/05/11 07:51:06;;;;;;;0.30;0.30;;;15.30;83.90;15.40;96155.00;;;;5048893;28;20271;-84
2023/05/11 07:53:33;;;;;;;0.33;0.33;;;15.30;83.80;15.40;96156.00;;;;5031174;28;20206;-83
2023/05/11 07:56:02;;;;;;;0.37;0.37;;;15.30;84.00;15.40;96159.00;;;;5041302;28;20267;-84
2023/05/11 07:58:29;;;;;;;0.53;0.40;;;15.30;84.30;15.40;96161.00;;;;5038123;28;20193;-83
2023/05/11 08:00:57;;;;;;;0.53;0.40;;;15.30;84.40;15.40;96162.00;;;;5053510;28;20209;-83
2023/05/11 08:03:25;;;;;;;0.40;0.40;;;15.30;84.40;15.40;96160.00;;;;5054422;28;20316;-84
2023/05/11 08:05:54;;;;;;;0.40;0.40;;;15.30;84.50;15.40;96163.00;;;;5015678;28;20217;-85
2023/05/11 08:08:22;;;;;;;0.40;0.40;;;15.30;84.70;15.40;96161.00;;;;5024608;28;20280;-84
2023/05/11 08:10:49;;;;;;;1.07;0.30;;;15.30;84.90;15.40;96158.00;;;;5035526;28;20688;-84
2023/05/11 08:13:17;;;;;;;0.40;0.40;;;15.30;84.90;15.40;96162.00;;;;5028394;28;20197;-84
2023/05/11 08:15:45;;;;;;;0.40;0.40;;;15.30;84.90;15.40;96162.00;;;;5027412;28;20213;-86
2023/05/11 08:18:12;;;;;;;0.30;0.30;;;15.30;85.00;15.40;96161.00;;;;5036816;28;20182;-84
2023/05/11 08:20:41;;;;;;;0.30;0.30;;;15.30;85.20;15.50;96159.00;;;;5047113;28;20196;-84
2023/05/11 08:23:15;;;;;;;0.30;0.30;;;15.30;85.40;15.50;96170.00;;;;5056319;28;20217;-83
2023/05/11 08:25:52;;;;;;;0.40;0.40;;;15.30;85.30;15.50;96167.00;;;;5064656;28;20234;-85
2023/05/11 08:28:21;;;;;;;0.30;0.30;;;15.40;85.70;15.60;96164.00;;;;5040636;28;20193;-84
2023/05/11 08:30:55;;;;;;;0.30;0.30;;;15.30;85.50;15.60;96156.00;;;;5042851;28;20201;-84
2023/05/11 08:33:22;;;;;;;0.37;0.37;;;15.40;85.40;15.60;96172.00;;;;5027291;28;20197;-84
2023/05/11 08:35:50;;;;;;;0.30;0.30;;;15.40;85.30;15.60;96165.00;;;;5018175;28;20230;-85
2023/05/11 08:38:19;;;;;;;0.30;0.30;;;15.40;85.40;15.60;96168.00;;;;5023146;28;20201;-84
2023/05/11 08:40:47;;;;;;;0.63;0.40;;;15.40;85.50;15.60;96166.00;;;;5027355;28;20308;-84
2023/05/11 08:43:18;;;;;;;0.77;0.40;;;15.40;85.50;15.60;96163.00;;;;5033880;28;20230;-84
2023/05/11 08:45:51;;;;;;;0.30;0.30;;;15.40;85.70;15.70;96166.00;;;;5035066;28;20244;-85
2023/05/11 08:48:19;;;;;;;0.30;0.30;;;15.50;85.80;15.70;96162.00;;;;5027810;28;20213;-84
2023/05/11 08:50:49;;;;;;;0.30;0.30;;;15.50;85.60;15.70;96163.00;;;;5035235;28;20224;-84
2023/05/11 08:53:18;;;;;;;0.50;0.20;;;15.50;85.20;15.60;96160.00;;;;5034980;28;20575;-85
2023/05/11 08:55:50;;;;;;;0.40;0.40;;;15.40;85.40;15.60;96166.00;;;;5034438;28;20217;-84
2023/05/11 08:58:21;;;;;;;0.50;0.50;;;15.40;84.70;15.60;96162.00;;;;4997535;28;20684;-84
2023/05/11 09:00:50;;;;;;;0.40;0.40;;;15.40;85.10;15.60;96158.00;;;;5023609;28;20196;-84
2023/05/11 09:03:20;;;;;;;0.50;0.50;;;15.40;85.40;15.70;96160.00;;;;5005671;28;20221;-84
2023/05/11 09:05:49;;;;;;;0.70;0.57;;;15.40;85.50;15.70;96152.00;;;;5006634;28;20229;-85
2023/05/11 09:08:22;;;;;;;0.30;0.30;;;15.50;85.50;15.70;96147.00;;;;5035792;28;20201;-83
2023/05/11 09:10:50;;;;;;;0.40;0.40;;;15.50;85.50;15.70;96150.00;;;;5017331;28;20240;-84
2023/05/11 09:13:18;;;;;;;0.40;0.40;;;15.50;85.80;15.80;96152.00;;;;5029192;28;20209;-84
2023/05/11 09:15:45;;;;;;;0.50;0.50;;;15.50;86.00;15.80;96160.00;;;;5043136;28;20220;-84
2023/05/11 09:18:13;;;;;;;0.60;0.50;;;15.50;86.20;15.90;96159.00;;;;5035061;28;20618;-85
2023/05/11 09:20:44;;;;;;;0.33;0.33;;;15.60;86.40;15.90;96157.00;;;;5032767;28;20207;-86
2023/05/11 09:23:16;;;;;;;0.30;0.30;;;15.60;86.70;16.00;96160.00;;;;5034217;28;20210;-86
2023/05/11 09:25:45;;;;;;;0.30;0.30;;;15.70;86.70;16.00;96158.00;;;;5037899;28;20307;-84
2023/05/11 09:28:15;;;;;;;0.27;0.27;;;15.70;86.40;16.00;96159.00;;;;5036704;28;20288;-84
2023/05/11 09:30:43;;;;;;;0.37;0.30;;;15.70;86.10;16.00;96159.00;;;;5037796;28;20650;-85
2023/05/11 09:33:10;;;;;;;0.73;0.40;;;15.70;85.50;16.00;96152.00;;;;5050602;28;20239;-84
2023/05/11 09:35:37;;;;;;;0.70;0.60;;;15.70;85.20;16.00;96159.00;;;;5043380;28;20304;-81
2023/05/11 09:38:07;;;;;;;0.40;0.40;;;15.70;85.10;15.90;96157.00;;;;5032931;28;20280;-83
2023/05/11 09:40:37;;;;;;;0.43;0.43;;;15.70;84.90;15.90;96160.00;;;;5017703;28;20229;-85
2023/05/11 09:43:17;;;;;;;0.60;0.60;;;15.70;84.80;15.90;96161.00;;;;5042610;28;20304;-84
2023/05/11 09:45:47;;;;;;;0.50;0.50;;;15.70;84.80;15.90;96155.00;;;;4997326;28;20256;-85
2023/05/11 09:48:30;;;;;;;0.67;0.50;;;15.70;85.20;16.00;96157.00;;;;4997010;28;20293;-83
2023/05/11 09:51:04;;;;;;;0.60;0.30;;;15.70;85.50;16.00;96151.00;;;;5004262;28;20196;-84
2023/05/11 09:53:41;;;;;;;0.40;0.40;;;15.70;85.70;16.10;96157.00;;;;5013827;28;20280;-84
2023/05/11 09:56:09;;;;;;;0.77;0.30;;;15.70;85.80;16.10;96155.00;;;;5025422;28;20200;-84
2023/05/11 09:58:51;;;;;;;0.40;0.40;;;15.70;85.80;16.20;96156.00;;;;5009335;28;20700;-84
2023/05/11 10:01:31;;;;;;;0.47;0.47;;;15.80;85.30;16.20;96156.00;;;;5026364;28;20204;-84
2023/05/11 10:04:01;;;;;;;0.50;0.50;;;15.80;85.30;16.20;96153.00;;;;5016406;28;20308;-83
2023/05/11 10:06:44;;;;;;;0.60;0.60;;;15.80;85.50;16.30;96158.00;;;;5034532;28;20287;-84
2023/05/11 10:09:11;;;;;;;0.70;0.70;;;15.80;85.50;16.30;96162.00;;;;5017997;28;20182;-83
2023/05/11 10:11:43;;;;;;;0.60;0.60;;;15.90;85.60;16.30;96151.00;;;;5007339;28;20288;-85
2023/05/11 10:14:15;;;;;;;0.70;0.70;;;15.90;85.50;16.40;96159.00;;;;5028089;28;20278;-83
2023/05/11 10:16:44;;;;;;;0.70;0.70;;;15.90;85.40;16.40;96151.00;;;;5042144;28;20276;-84
2023/05/11 10:19:13;;;;;;;0.70;0.70;;;16.00;85.60;16.50;96159.00;;;;5033051;28;20606;-85
2023/05/11 10:21:41;;;;;;;0.50;0.50;;;16.00;85.60;16.50;96156.00;;;;5019199;28;20228;-85
2023/05/11 10:24:12;;;;;;;0.40;0.40;;;16.00;85.50;16.50;96156.00;;;;5024200;28;20229;-84
2023/05/11 10:26:41;;;;;;;0.80;0.80;;;16.00;85.30;16.50;96149.00;;;;5027492;28;20243;-86
2023/05/11 10:29:12;;;;;;;0.60;0.60;;;16.10;85.40;16.50;96156.00;;;;5026564;28;20197;-84
2023/05/11 10:31:40;;;;;;;0.50;0.50;;;16.10;85.50;16.50;96155.00;;;;5008824;28;20202;-85
2023/05/11 10:34:10;;;;;;;0.70;0.47;;;16.10;85.50;16.50;96155.00;;;;5032066;28;20253;-83
2023/05/11 10:36:39;;;;;;;0.50;0.50;;;16.20;85.70;16.60;96159.00;;;;5038776;28;20288;-84
2023/05/11 10:39:07;;;;;;;0.40;0.40;;;16.20;85.70;16.60;96162.00;;;;5021326;28;20194;-81
2023/05/11 10:42:00;;;;;;;0.37;0.37;;;16.20;85.50;16.60;96159.00;;;;5046753;28;20200;-84
2023/05/11 10:45:00;;;;;;;0.50;0.50;;;16.20;85.50;16.70;96150.00;;;;5053108;28;20240;-84
2023/05/11 10:48:27;;;;;;;0.30;0.30;;;16.30;85.20;16.60;96153.00;;;;5061320;28;20228;-84
2023/05/11 10:51:16;;;;;;;0.43;0.37;;;16.30;85.20;16.60;96146.00;;;;5037037;28;20207;-85
2023/05/11 10:54:20;;;;;;;0.40;0.40;;;16.30;85.20;16.60;96150.00;;;;5066610;28;20269;-83
2023/05/11 10:57:12;;;;;;;0.30;0.30;;;16.30;85.00;16.60;96144.00;;;;5006580;28;20406;-84
2023/05/11 11:00:29;;;;;;;0.50;0.50;;;16.30;85.20;16.70;96147.00;;;;5029219;28;20299;-84
2023/05/11 11:02:58;;;;;;;1.00;0.90;;;16.40;85.00;16.70;96147.00;;;;5041866;28;20278;-83
2023/05/11 11:05:37;;;;;;;0.60;0.60;;;16.40;84.80;16.70;96152.00;;;;5019714;28;20590;-83
2023/05/11 11:08:08;;;;;;;0.43;0.43;;;16.40;84.30;16.70;96148.00;;;;5008539;28;20217;-82
2023/05/11 11:10:37;;;;;;;0.40;0.40;;;16.40;84.50;16.70;96148.00;;;;5045200;28;20718;-83